Ballywalter, United Kingdom
Current Conditions -  °F | °C
As of 7:20 AM on Saturday 20 Dec 2014 (Local Time) from EGAC Reporting Station
Scattered Clouds Scattered Clouds  
Wind Chill: 35°   Ceiling: Unl
Heat Index: 43°   Visibility: 6mi
Dew Point: 37°   Wind: 17mph
Humidity: 81%   Direction: 280°W
Pressure: 30.12"   Gusts: NA
Location:  54.54°N, 5.48°W
Report Text: EGAC 200720Z 28015KT 9999 FEW025 SCT033 06/03 Q1020
Loading
Personal Weather Stations






























Interactive Weather Map New forecast layout! Learn more

10-Day Weather Forecast

Advertisements
Track Severe Weather on mobile